Time;durP1;ratioP1;P1;durP2;ratioP2;P2;SDS_P1;SDS_P2;PMS_P1;PMS_P2;Temp;Humidity;BMP_temperature;BMP_pressure;BME280_temperature;BME280_humidity;BME280_pressure;Samples;Min_cycle;Max_cycle;Signal;HPM_P1;HPM_P2
2021/01/07 00:00:39;;;;;;;16.90;11.00;;;3.40;99.90;;;;;;5038227;28;20183;-71
2021/01/07 00:03:05;;;;;;;13.67;10.43;;;3.40;99.90;;;;;;5036486;28;20173;-71
2021/01/07 00:05:30;;;;;;;15.70;11.80;;;3.40;99.90;;;;;;5036336;28;20193;-71
2021/01/07 00:07:56;;;;;;;14.70;10.50;;;3.50;99.90;;;;;;5036618;28;20175;-71
2021/01/07 00:10:22;;;;;;;13.77;9.70;;;3.40;99.90;;;;;;5036632;28;20178;-71
2021/01/07 00:12:47;;;;;;;12.70;9.07;;;3.30;99.90;;;;;;5037769;28;20684;-71
2021/01/07 00:15:14;;;;;;;12.40;9.50;;;3.40;99.90;;;;;;5035949;28;20948;-71
2021/01/07 00:17:39;;;;;;;12.87;9.80;;;3.40;99.90;;;;;;5036616;28;20187;-71
2021/01/07 00:20:07;;;;;;;15.73;10.10;;;3.40;99.90;;;;;;5036238;28;20410;-71
2021/01/07 00:22:33;;;;;;;11.10;8.73;;;3.40;99.90;;;;;;5035936;28;20227;-71
2021/01/07 00:24:58;;;;;;;14.63;8.63;;;3.40;99.90;;;;;;5034483;28;21068;-71
2021/01/07 00:27:24;;;;;;;13.50;8.30;;;3.40;99.90;;;;;;5036286;28;20581;-71
2021/01/07 00:29:49;;;;;;;13.67;8.83;;;3.40;99.90;;;;;;5035068;28;20301;-71
2021/01/07 00:32:15;;;;;;;13.03;9.17;;;3.40;99.90;;;;;;5036826;28;20250;-71
2021/01/07 00:34:42;;;;;;;11.60;8.00;;;3.40;99.90;;;;;;5035660;28;20734;-71
2021/01/07 00:37:07;;;;;;;11.70;7.90;;;3.20;99.90;;;;;;5035907;28;20819;-71
2021/01/07 00:39:33;;;;;;;10.50;7.73;;;2.90;99.90;;;;;;5034248;28;20459;-71
2021/01/07 00:41:59;;;;;;;13.20;8.40;;;2.70;99.90;;;;;;5036119;28;20249;-71
2021/01/07 00:44:26;;;;;;;14.87;8.60;;;2.70;99.90;;;;;;5050990;28;20224;-71
2021/01/07 00:46:52;;;;;;;12.03;8.27;;;2.60;99.90;;;;;;5055326;28;20818;-71
2021/01/07 00:49:18;;;;;;;12.50;8.43;;;2.70;99.90;;;;;;5054717;28;20764;-71
2021/01/07 00:51:43;;;;;;;12.70;7.57;;;2.90;99.90;;;;;;5055467;28;20413;-71
2021/01/07 00:54:10;;;;;;;8.73;7.13;;;3.00;99.90;;;;;;5052556;28;20174;-71
2021/01/07 00:56:39;;;;;;;12.60;7.73;;;3.10;99.90;;;;;;5055505;28;20190;-71
2021/01/07 00:59:06;;;;;;;12.33;8.30;;;3.20;99.90;;;;;;5055998;28;20743;-71
2021/01/07 01:01:32;;;;;;;12.80;9.20;;;3.20;99.90;;;;;;5055649;28;20499;-71
2021/01/07 01:03:58;;;;;;;11.83;8.30;;;3.30;99.90;;;;;;5053133;28;21441;-71
2021/01/07 01:06:33;;;;;;;13.17;8.43;;;3.40;99.90;;;;;;5036258;28;20544;-71
2021/01/07 01:08:59;;;;;;;12.27;8.50;;;3.40;99.90;;;;;;5038409;28;20663;-71
2021/01/07 01:11:25;;;;;;;12.03;7.90;;;3.40;99.90;;;;;;5043645;28;20481;-71
2021/01/07 01:13:51;;;;;;;9.13;7.73;;;3.40;99.90;;;;;;5035245;28;20171;-71
2021/01/07 01:16:17;;;;;;;11.40;7.83;;;3.40;99.90;;;;;;5036378;28;20568;-71
2021/01/07 01:18:42;;;;;;;11.83;7.87;;;3.50;99.90;;;;;;5035478;28;20408;-71
2021/01/07 01:21:08;;;;;;;10.23;7.30;;;3.60;99.90;;;;;;5035521;28;20545;-71
2021/01/07 01:23:34;;;;;;;10.90;7.50;;;3.60;99.90;;;;;;5034202;28;20673;-71
2021/01/07 01:25:59;;;;;;;9.80;7.73;;;3.60;99.90;;;;;;5036271;28;20197;-71
2021/01/07 01:28:26;;;;;;;9.00;7.50;;;3.50;99.90;;;;;;5035374;28;20228;-71
2021/01/07 01:30:51;;;;;;;11.37;7.90;;;3.50;99.90;;;;;;5035854;28;20164;-71
2021/01/07 01:33:17;;;;;;;9.20;7.90;;;3.50;99.90;;;;;;5040349;28;20449;-71
2021/01/07 01:35:42;;;;;;;12.17;6.83;;;3.50;99.90;;;;;;5052269;28;20195;-71
2021/01/07 01:38:08;;;;;;;8.90;6.90;;;3.50;99.90;;;;;;5049973;28;20184;-71
2021/01/07 01:40:34;;;;;;;11.03;7.53;;;3.40;99.90;;;;;;5035697;28;20191;-71
2021/01/07 01:42:59;;;;;;;10.40;7.30;;;3.50;99.90;;;;;;5044975;28;20226;-71
2021/01/07 01:45:25;;;;;;;9.17;7.23;;;3.40;99.90;;;;;;5046961;28;20199;-71
2021/01/07 01:47:50;;;;;;;9.20;7.40;;;3.40;99.90;;;;;;5055411;28;20628;-71
2021/01/07 01:50:16;;;;;;;11.63;7.97;;;3.40;99.90;;;;;;5054711;28;20633;-71
2021/01/07 01:52:41;;;;;;;10.53;7.20;;;3.40;99.90;;;;;;5055013;28;20255;-71
2021/01/07 01:55:08;;;;;;;10.37;7.13;;;3.40;99.90;;;;;;5054248;28;20175;-71
2021/01/07 01:57:34;;;;;;;14.03;8.33;;;3.40;99.90;;;;;;5052458;28;20552;-71
2021/01/07 01:59:59;;;;;;;9.77;7.40;;;3.50;99.90;;;;;;5054792;28;20756;-71
2021/01/07 02:02:26;;;;;;;14.60;7.90;;;3.50;99.90;;;;;;5054164;28;20454;-71
2021/01/07 02:04:51;;;;;;;14.40;8.33;;;3.40;99.90;;;;;;5053585;28;20181;-71
2021/01/07 02:07:25;;;;;;;14.00;9.40;;;3.40;99.90;;;;;;5053108;28;20445;-71
2021/01/07 02:09:50;;;;;;;10.83;8.27;;;3.30;99.90;;;;;;5052259;28;20703;-71
2021/01/07 02:12:17;;;;;;;11.63;7.83;;;3.30;99.90;;;;;;5054389;28;20413;-71
2021/01/07 02:14:44;;;;;;;14.57;9.70;;;3.30;99.90;;;;;;5053716;28;20183;-71
2021/01/07 02:17:10;;;;;;;12.37;8.87;;;3.30;99.90;;;;;;5052373;28;20448;-71
2021/01/07 02:19:36;;;;;;;17.17;9.30;;;3.30;99.90;;;;;;5051870;28;21041;-71
2021/01/07 02:22:02;;;;;;;14.20;9.63;;;3.30;99.90;;;;;;5052368;28;20497;-71
2021/01/07 02:24:29;;;;;;;14.57;10.80;;;3.20;99.90;;;;;;5053736;28;20409;-71
2021/01/07 02:26:59;;;;;;;17.90;10.37;;;3.20;99.90;;;;;;5053588;28;20425;-72
2021/01/07 02:29:25;;;;;;;16.03;10.17;;;3.30;99.90;;;;;;5052101;28;20424;-71
2021/01/07 02:31:50;;;;;;;14.93;9.50;;;3.30;99.90;;;;;;5053883;28;20417;-71
2021/01/07 02:34:16;;;;;;;12.43;9.20;;;3.30;99.90;;;;;;5053348;28;20217;-71
2021/01/07 02:36:41;;;;;;;15.17;10.10;;;3.40;99.90;;;;;;5053866;28;20194;-71
2021/01/07 02:39:07;;;;;;;16.60;11.23;;;3.40;99.90;;;;;;5056513;28;20206;-71
2021/01/07 02:41:33;;;;;;;16.00;10.53;;;3.40;99.90;;;;;;5042617;28;20264;-71
2021/01/07 02:43:58;;;;;;;17.87;10.17;;;3.40;99.90;;;;;;5034353;28;20171;-71
2021/01/07 02:46:24;;;;;;;17.60;11.90;;;3.30;99.90;;;;;;5033743;28;20435;-70
2021/01/07 02:48:50;;;;;;;16.00;10.40;;;3.40;99.90;;;;;;5033800;28;20233;-73
2021/01/07 02:51:15;;;;;;;17.20;11.57;;;3.40;99.90;;;;;;5034017;28;20177;-71
2021/01/07 02:53:41;;;;;;;17.27;12.17;;;3.30;99.90;;;;;;5033301;28;20896;-70
2021/01/07 02:56:06;;;;;;;19.07;12.10;;;3.40;99.90;;;;;;5033198;28;20278;-72
2021/01/07 02:58:32;;;;;;;18.37;12.37;;;3.40;99.90;;;;;;5032987;28;20197;-71
2021/01/07 03:00:58;;;;;;;17.93;11.70;;;3.40;99.90;;;;;;5033424;28;20175;-71
2021/01/07 03:03:23;;;;;;;18.87;11.87;;;3.40;99.90;;;;;;5033436;28;20780;-71
2021/01/07 03:05:49;;;;;;;21.33;13.30;;;3.50;99.90;;;;;;5033084;28;20689;-71
2021/01/07 03:08:14;;;;;;;18.93;13.20;;;3.50;99.90;;;;;;5033639;28;20167;-70
2021/01/07 03:10:40;;;;;;;22.20;14.67;;;3.50;99.90;;;;;;5033348;28;20168;-71
2021/01/07 03:13:05;;;;;;;19.47;14.17;;;3.40;99.90;;;;;;5033260;28;20360;-71
2021/01/07 03:15:31;;;;;;;20.37;15.23;;;3.40;99.90;;;;;;5033269;28;20193;-70
2021/01/07 03:17:56;;;;;;;28.13;16.50;;;3.30;99.90;;;;;;5037547;28;20167;-70
2021/01/07 03:20:22;;;;;;;23.03;15.93;;;3.30;99.90;;;;;;5037544;28;20254;-70
2021/01/07 03:22:48;;;;;;;26.50;17.50;;;3.40;99.90;;;;;;5037850;28;20763;-70
2021/01/07 03:25:13;;;;;;;26.60;17.47;;;3.40;99.90;;;;;;5036849;28;20439;-70
2021/01/07 03:27:39;;;;;;;29.57;17.93;;;3.30;99.90;;;;;;5037131;28;20197;-70
2021/01/07 03:30:07;;;;;;;31.27;19.60;;;3.30;99.90;;;;;;5037201;28;20536;-70
2021/01/07 03:32:32;;;;;;;29.13;20.33;;;3.30;99.90;;;;;;5037355;28;20402;-70
2021/01/07 03:34:58;;;;;;;29.40;19.37;;;3.30;99.90;;;;;;5037717;28;20430;-70
2021/01/07 03:37:24;;;;;;;26.43;18.03;;;3.30;99.90;;;;;;5037105;28;20233;-71
2021/01/07 03:39:49;;;;;;;35.83;21.00;;;3.30;99.90;;;;;;5037046;28;20212;-70
2021/01/07 03:42:15;;;;;;;33.40;21.60;;;3.20;99.90;;;;;;5037143;28;20515;-71
2021/01/07 03:44:40;;;;;;;34.10;20.43;;;3.30;99.90;;;;;;5037890;28;20188;-71
2021/01/07 03:47:06;;;;;;;29.60;19.63;;;3.30;99.90;;;;;;5036865;28;20654;-72
2021/01/07 03:49:31;;;;;;;38.73;22.20;;;3.30;99.90;;;;;;5037347;28;20602;-71
2021/01/07 03:51:57;;;;;;;31.77;22.30;;;3.20;99.90;;;;;;5037079;28;20171;-71
2021/01/07 03:54:22;;;;;;;35.93;21.80;;;3.30;99.90;;;;;;5036677;28;20175;-71
2021/01/07 03:56:48;;;;;;;38.47;23.57;;;3.30;99.90;;;;;;5056570;28;20186;-71
2021/01/07 03:59:13;;;;;;;34.67;21.33;;;3.30;99.90;;;;;;5056698;28;20174;-71
2021/01/07 04:01:39;;;;;;;34.70;20.80;;;3.20;99.90;;;;;;5055490;28;20198;-72
2021/01/07 04:04:04;;;;;;;27.80;20.27;;;3.10;99.90;;;;;;5056388;28;20174;-71
2021/01/07 04:06:30;;;;;;;33.23;22.33;;;3.20;99.90;;;;;;5054574;28;20203;-71
2021/01/07 04:08:55;;;;;;;35.67;22.07;;;3.10;99.90;;;;;;5056198;28;20638;-72
2021/01/07 04:11:21;;;;;;;32.50;20.80;;;3.10;99.90;;;;;;5056524;28;20175;-71
2021/01/07 04:13:46;;;;;;;28.20;19.27;;;3.10;99.90;;;;;;5056291;28;20571;-71
2021/01/07 04:16:12;;;;;;;25.80;18.20;;;3.10;99.90;;;;;;5051974;28;20196;-71
2021/01/07 04:18:38;;;;;;;29.67;19.33;;;3.10;99.90;;;;;;5036065;28;20167;-71
2021/01/07 04:21:03;;;;;;;25.67;19.23;;;3.20;99.90;;;;;;5036655;28;20242;-71
2021/01/07 04:23:29;;;;;;;27.07;18.93;;;3.30;99.90;;;;;;5036696;28;20221;-71
2021/01/07 04:25:55;;;;;;;28.60;18.00;;;3.30;99.90;;;;;;5037565;28;20296;-71
2021/01/07 04:28:20;;;;;;;26.33;17.80;;;3.40;99.90;;;;;;5036790;28;20636;-72
2021/01/07 04:30:46;;;;;;;24.80;17.23;;;3.40;99.90;;;;;;5041270;28;20168;-72
2021/01/07 04:33:12;;;;;;;22.00;15.43;;;3.50;99.90;;;;;;5037012;28;20207;-72
2021/01/07 04:35:38;;;;;;;26.67;18.40;;;3.50;99.90;;;;;;5036818;28;20507;-71
2021/01/07 04:38:03;;;;;;;28.13;18.43;;;3.50;99.90;;;;;;5038633;28;20426;-72
2021/01/07 04:40:29;;;;;;;24.10;16.33;;;3.40;99.90;;;;;;5037223;28;20408;-71
2021/01/07 04:42:55;;;;;;;27.50;18.20;;;3.40;99.90;;;;;;5036283;28;20202;-71
2021/01/07 04:45:21;;;;;;;25.63;17.10;;;3.50;99.90;;;;;;5036258;28;20192;-71
2021/01/07 04:47:48;;;;;;;27.10;16.80;;;3.50;99.90;;;;;;5034553;28;20839;-71
2021/01/07 04:50:13;;;;;;;26.87;17.37;;;3.50;99.90;;;;;;5036015;28;20479;-72
2021/01/07 04:52:39;;;;;;;27.33;18.20;;;3.50;99.90;;;;;;5037717;28;20469;-71
2021/01/07 04:55:06;;;;;;;23.90;17.00;;;3.50;99.90;;;;;;5063979;28;20672;-71
2021/01/07 04:57:31;;;;;;;25.57;17.17;;;3.40;99.90;;;;;;5055553;28;20425;-71
2021/01/07 04:59:57;;;;;;;21.90;16.20;;;3.50;99.90;;;;;;5055737;28;20403;-71
2021/01/07 05:02:23;;;;;;;23.93;17.27;;;3.50;99.90;;;;;;5055602;28;20274;-72
2021/01/07 05:04:52;;;;;;;29.70;17.07;;;3.50;99.90;;;;;;5053195;28;20277;-71
2021/01/07 05:07:19;;;;;;;24.77;16.73;;;3.50;99.90;;;;;;5055410;28;20609;-72
2021/01/07 05:09:45;;;;;;;23.73;15.70;;;3.50;99.90;;;;;;5055047;28;20436;-71
2021/01/07 05:12:12;;;;;;;24.57;18.00;;;3.50;99.90;;;;;;5055825;28;20405;-71
2021/01/07 05:14:45;;;;;;;27.80;18.17;;;3.50;99.90;;;;;;5066603;28;20524;-71
2021/01/07 05:17:12;;;;;;;23.37;17.40;;;3.50;99.90;;;;;;5065707;28;20452;-71
2021/01/07 05:19:39;;;;;;;27.43;17.47;;;3.40;99.90;;;;;;5056290;28;20409;-71
2021/01/07 05:22:05;;;;;;;23.33;15.17;;;3.40;99.90;;;;;;5066982;28;20448;-71
2021/01/07 05:24:32;;;;;;;26.57;16.67;;;3.30;99.90;;;;;;5063898;28;20417;-71
2021/01/07 05:27:03;;;;;;;23.23;16.73;;;3.40;99.90;;;;;;5040455;28;20438;-71
2021/01/07 05:29:29;;;;;;;25.47;16.13;;;3.40;99.90;;;;;;5035191;28;20413;-71
2021/01/07 05:31:54;;;;;;;21.73;15.97;;;3.50;99.90;;;;;;5034939;28;20410;-71
2021/01/07 05:34:20;;;;;;;24.13;15.90;;;3.50;99.90;;;;;;5034622;28;20183;-71
2021/01/07 05:36:46;;;;;;;25.50;16.37;;;3.30;99.90;;;;;;5050336;28;20268;-71
2021/01/07 05:39:11;;;;;;;24.47;16.50;;;3.20;99.90;;;;;;5054450;28;20172;-71
2021/01/07 05:41:37;;;;;;;26.00;16.80;;;3.20;99.90;;;;;;5054631;28;20198;-71
2021/01/07 05:44:12;;;;;;;22.87;15.47;;;3.20;99.90;;;;;;5054212;28;20200;-71
2021/01/07 05:46:37;;;;;;;23.37;14.93;;;3.30;99.90;;;;;;5051637;28;20193;-70
2021/01/07 05:49:02;;;;;;;21.40;14.90;;;3.20;99.90;;;;;;5054608;28;20405;-70
2021/01/07 05:51:29;;;;;;;23.07;15.83;;;3.30;99.90;;;;;;5054005;28;20182;-70
2021/01/07 05:53:59;;;;;;;24.83;17.07;;;3.40;99.90;;;;;;5054288;28;20175;-70
2021/01/07 05:56:26;;;;;;;23.10;16.10;;;3.50;99.90;;;;;;5054277;28;20923;-71
2021/01/07 05:58:54;;;;;;;27.20;16.13;;;3.50;99.90;;;;;;5054178;28;20405;-71
2021/01/07 06:01:21;;;;;;;21.40;14.17;;;3.60;99.90;;;;;;5052235;28;20448;-71
2021/01/07 06:03:52;;;;;;;22.17;15.67;;;3.60;99.90;;;;;;5054318;28;20952;-71
2021/01/07 06:06:19;;;;;;;25.00;15.30;;;3.60;99.90;;;;;;5053847;28;20931;-71
2021/01/07 06:08:50;;;;;;;25.30;15.37;;;3.60;99.90;;;;;;5054526;28;20408;-70
2021/01/07 06:11:21;;;;;;;22.03;15.10;;;3.60;99.90;;;;;;5052488;28;20775;-72
2021/01/07 06:13:49;;;;;;;23.20;15.30;;;3.60;99.90;;;;;;5054581;28;20802;-70
2021/01/07 06:16:16;;;;;;;23.53;15.97;;;3.60;99.90;;;;;;5054257;28;20486;-72
2021/01/07 06:18:42;;;;;;;24.77;17.13;;;3.50;99.90;;;;;;5054058;28;20507;-72
2021/01/07 06:21:09;;;;;;;20.03;15.27;;;3.50;99.90;;;;;;5054211;28;20609;-72
2021/01/07 06:23:56;;;;;;;22.00;14.87;;;3.50;99.90;;;;;;5035928;28;20179;-72
2021/01/07 06:26:26;;;;;;;20.63;14.93;;;3.50;99.90;;;;;;5033963;28;20483;-72
2021/01/07 06:29:00;;;;;;;24.73;16.37;;;3.50;99.90;;;;;;5034175;28;20773;-72
2021/01/07 06:31:37;;;;;;;22.47;15.27;;;3.40;99.90;;;;;;5034301;28;20412;-72
2021/01/07 06:34:06;;;;;;;23.30;15.83;;;3.50;99.90;;;;;;5034480;28;20466;-70
2021/01/07 06:36:39;;;;;;;23.00;16.30;;;3.50;99.90;;;;;;5033644;28;20448;-72
2021/01/07 06:39:06;;;;;;;22.93;16.13;;;3.40;99.90;;;;;;5034398;28;20492;-72
2021/01/07 06:41:32;;;;;;;28.67;17.97;;;3.50;99.90;;;;;;5034111;28;20450;-72
2021/01/07 06:43:58;;;;;;;21.00;14.13;;;3.60;99.90;;;;;;5033197;28;20476;-72
2021/01/07 06:46:37;;;;;;;25.70;16.23;;;3.60;99.90;;;;;;5034033;28;20745;-72
2021/01/07 06:49:28;;;;;;;24.77;16.90;;;3.60;99.90;;;;;;5036383;28;20445;-72
2021/01/07 06:52:04;;;;;;;25.97;16.83;;;3.50;99.90;;;;;;5030435;28;20943;-71
2021/01/07 06:54:37;;;;;;;30.27;17.67;;;3.50;99.90;;;;;;5024291;28;20421;-70
2021/01/07 06:57:05;;;;;;;28.73;17.63;;;3.50;99.90;;;;;;5031949;28;20450;-70
2021/01/07 06:59:32;;;;;;;29.70;18.07;;;3.50;99.90;;;;;;5034665;28;20484;-71
2021/01/07 07:01:59;;;;;;;27.33;16.97;;;3.50;99.90;;;;;;5033917;28;20785;-72
2021/01/07 07:04:29;;;;;;;26.47;16.57;;;3.50;99.90;;;;;;5033168;28;20555;-70
2021/01/07 07:07:14;;;;;;;26.53;15.97;;;3.50;99.90;;;;;;5033762;28;20422;-70
2021/01/07 07:09:41;;;;;;;27.27;17.30;;;3.60;99.90;;;;;;5034721;28;20459;-70
2021/01/07 07:12:07;;;;;;;29.23;18.33;;;3.60;99.90;;;;;;5034615;28;20411;-70
2021/01/07 07:14:33;;;;;;;25.43;16.57;;;3.60;99.90;;;;;;5034585;28;20559;-71
2021/01/07 07:17:07;;;;;;;27.07;16.73;;;3.70;99.90;;;;;;5034066;28;20195;-71
2021/01/07 07:19:36;;;;;;;24.07;15.87;;;3.60;99.90;;;;;;5032108;28;20435;-71
2021/01/07 07:22:02;;;;;;;25.87;17.50;;;3.50;99.90;;;;;;5035233;28;20465;-71
2021/01/07 07:24:50;;;;;;;26.80;16.30;;;3.50;99.90;;;;;;5033804;28;20494;-71
2021/01/07 07:27:18;;;;;;;22.43;14.17;;;3.50;99.90;;;;;;5034153;28;20429;-72
2021/01/07 07:29:45;;;;;;;21.33;15.10;;;3.40;99.90;;;;;;5032546;28;20421;-71
2021/01/07 07:32:21;;;;;;;20.63;13.93;;;3.40;99.90;;;;;;5031558;28;20471;-72
2021/01/07 07:34:49;;;;;;;20.43;12.90;;;3.40;99.90;;;;;;5027077;28;20461;-71
2021/01/07 07:37:25;;;;;;;18.60;13.33;;;3.50;99.90;;;;;;5028771;28;20482;-71
2021/01/07 07:40:03;;;;;;;19.70;14.07;;;3.50;99.90;;;;;;5030815;28;20484;-72
2021/01/07 07:42:29;;;;;;;22.63;14.90;;;3.50;99.90;;;;;;5036426;28;20803;-71
2021/01/07 07:44:57;;;;;;;22.00;14.97;;;3.50;99.90;;;;;;5043935;28;20409;-71
2021/01/07 07:47:23;;;;;;;23.97;15.33;;;3.50;99.90;;;;;;5044549;28;20553;-71
2021/01/07 07:49:56;;;;;;;29.60;17.40;;;3.30;99.90;;;;;;5032762;28;20417;-71
2021/01/07 07:52:22;;;;;;;25.27;15.13;;;3.30;99.90;;;;;;5031741;28;20170;-71
2021/01/07 07:55:02;;;;;;;23.90;14.33;;;3.30;99.90;;;;;;5030277;28;20434;-71
2021/01/07 07:57:27;;;;;;;22.63;14.50;;;3.40;99.90;;;;;;5033282;28;20466;-71
2021/01/07 07:59:53;;;;;;;24.77;14.63;;;3.40;99.90;;;;;;5033460;28;20783;-71
2021/01/07 08:02:19;;;;;;;25.57;16.53;;;3.40;99.90;;;;;;5034046;28;20199;-71
2021/01/07 08:04:44;;;;;;;22.63;14.50;;;3.50;99.90;;;;;;5038230;28;20187;-71
2021/01/07 08:07:10;;;;;;;24.77;14.53;;;3.40;99.90;;;;;;5035548;28;21021;-71
2021/01/07 08:09:36;;;;;;;23.50;14.27;;;3.40;99.90;;;;;;5041067;28;20202;-71
2021/01/07 08:12:01;;;;;;;19.47;12.77;;;3.20;99.90;;;;;;5042141;28;20263;-71
2021/01/07 08:14:30;;;;;;;18.17;11.60;;;3.10;99.90;;;;;;5046520;28;20710;-71
2021/01/07 08:16:59;;;;;;;19.33;12.57;;;3.10;99.90;;;;;;5043816;28;20574;-72
2021/01/07 08:19:35;;;;;;;15.40;10.50;;;3.10;99.90;;;;;;5036679;28;20819;-72
2021/01/07 08:22:03;;;;;;;15.70;10.40;;;3.00;99.90;;;;;;5037108;28;20495;-71
2021/01/07 08:24:29;;;;;;;13.67;10.23;;;3.00;99.90;;;;;;5032644;28;20738;-71
2021/01/07 08:27:10;;;;;;;15.00;10.50;;;3.00;99.90;;;;;;5033322;28;20460;-71
2021/01/07 08:29:38;;;;;;;15.60;10.10;;;3.10;99.90;;;;;;5036712;28;20562;-72
2021/01/07 08:32:06;;;;;;;15.37;9.43;;;3.10;99.90;;;;;;5034032;28;20410;-72
2021/01/07 08:34:32;;;;;;;16.30;10.87;;;3.10;99.90;;;;;;5034205;28;21011;-71
2021/01/07 08:37:17;;;;;;;13.10;9.67;;;3.10;99.90;;;;;;5035010;28;20932;-72
2021/01/07 08:39:42;;;;;;;17.40;10.27;;;3.10;99.90;;;;;;5035706;28;20421;-71
2021/01/07 08:42:09;;;;;;;15.97;9.67;;;3.10;99.90;;;;;;5036107;28;20515;-71
2021/01/07 08:44:35;;;;;;;16.80;11.07;;;3.20;99.90;;;;;;5035958;28;20556;-71
2021/01/07 08:47:01;;;;;;;15.47;9.47;;;3.00;99.90;;;;;;5030523;28;20453;-72
2021/01/07 08:49:28;;;;;;;12.23;8.37;;;2.90;99.90;;;;;;5037727;28;20406;-71
2021/01/07 08:51:58;;;;;;;14.93;10.57;;;2.80;99.90;;;;;;5050880;28;20174;-72
2021/01/07 08:54:24;;;;;;;13.33;10.40;;;2.80;99.90;;;;;;5041925;28;20717;-72
2021/01/07 08:56:52;;;;;;;14.70;9.20;;;2.90;99.90;;;;;;5055016;28;20444;-72
2021/01/07 08:59:29;;;;;;;11.83;8.97;;;3.00;99.90;;;;;;5048941;28;20430;-72
2021/01/07 09:01:59;;;;;;;14.03;8.83;;;3.10;99.90;;;;;;5029123;28;20460;-72
2021/01/07 09:04:34;;;;;;;12.90;8.47;;;3.20;99.90;;;;;;5035725;28;20401;-72
2021/01/07 09:07:13;;;;;;;10.40;7.20;;;3.30;99.90;;;;;;5035831;28;20859;-72
2021/01/07 09:09:42;;;;;;;12.10;8.27;;;3.40;99.90;;;;;;5033203;28;20564;-72
2021/01/07 09:12:18;;;;;;;11.37;7.80;;;3.50;99.90;;;;;;5035100;28;20413;-72
2021/01/07 09:14:49;;;;;;;12.00;8.37;;;3.60;99.90;;;;;;5031399;28;20410;-72
2021/01/07 09:17:17;;;;;;;13.07;9.33;;;3.70;99.90;;;;;;5035192;28;20532;-72
2021/01/07 09:19:43;;;;;;;13.80;8.70;;;3.70;99.90;;;;;;5035292;28;20448;-72
2021/01/07 09:22:09;;;;;;;16.53;9.53;;;3.70;99.90;;;;;;5035515;28;20508;-73
2021/01/07 09:24:36;;;;;;;15.20;10.10;;;3.80;99.90;;;;;;5035309;28;20417;-73
2021/01/07 09:27:21;;;;;;;16.07;10.53;;;3.80;99.90;;;;;;5036040;28;20430;-73
2021/01/07 09:29:47;;;;;;;16.20;10.03;;;3.80;99.90;;;;;;5055845;28;20429;-72
2021/01/07 09:32:14;;;;;;;14.67;9.90;;;3.80;99.90;;;;;;5042070;28;20415;-72
2021/01/07 09:34:40;;;;;;;20.43;10.80;;;3.80;99.90;;;;;;5035918;28;20450;-72
2021/01/07 09:37:09;;;;;;;19.60;11.43;;;3.90;99.90;;;;;;5036107;28;20467;-72
2021/01/07 09:39:35;;;;;;;15.43;11.10;;;3.80;99.90;;;;;;5037993;28;20424;-72
2021/01/07 09:42:02;;;;;;;19.03;12.60;;;3.80;99.90;;;;;;5029738;28;20577;-72
2021/01/07 09:44:27;;;;;;;19.60;13.60;;;3.90;99.90;;;;;;5035970;28;20425;-72
2021/01/07 09:46:54;;;;;;;21.00;13.83;;;3.80;99.90;;;;;;5037330;28;20501;-72
2021/01/07 09:49:20;;;;;;;18.77;13.10;;;3.70;99.90;;;;;;5036165;28;20167;-71
2021/01/07 09:51:46;;;;;;;17.97;12.50;;;3.70;99.90;;;;;;5038588;28;20471;-72
2021/01/07 09:54:11;;;;;;;17.67;11.70;;;3.70;99.90;;;;;;5034549;28;20487;-71
2021/01/07 09:56:37;;;;;;;20.87;13.10;;;3.70;99.90;;;;;;5038341;28;20290;-72
2021/01/07 09:59:02;;;;;;;18.00;12.57;;;3.70;99.90;;;;;;5036254;28;20199;-72
2021/01/07 10:01:28;;;;;;;20.60;13.80;;;3.60;99.90;;;;;;5034335;28;20223;-72
2021/01/07 10:03:54;;;;;;;16.67;12.00;;;3.40;99.90;;;;;;5036429;28;20170;-71
2021/01/07 10:06:19;;;;;;;19.40;11.60;;;3.40;99.90;;;;;;5032934;28;20202;-72
2021/01/07 10:08:45;;;;;;;16.37;10.93;;;3.40;99.90;;;;;;5036070;28;20207;-72
2021/01/07 10:11:12;;;;;;;16.50;11.37;;;3.50;99.90;;;;;;5033804;28;20528;-72
2021/01/07 10:13:38;;;;;;;13.67;10.00;;;3.60;99.90;;;;;;5050389;28;20182;-72
2021/01/07 10:16:03;;;;;;;15.00;9.57;;;3.60;99.90;;;;;;5033924;28;20947;-72
2021/01/07 10:18:29;;;;;;;14.83;10.90;;;3.70;99.90;;;;;;5033536;28;20505;-73
2021/01/07 10:20:59;;;;;;;13.30;9.73;;;3.70;99.90;;;;;;5033634;28;20389;-72
2021/01/07 10:23:26;;;;;;;14.93;10.47;;;3.70;99.90;;;;;;5045678;28;20190;-72
2021/01/07 10:25:51;;;;;;;11.80;9.00;;;3.60;99.90;;;;;;5036219;28;20443;-71
2021/01/07 10:28:18;;;;;;;13.63;9.97;;;3.70;99.90;;;;;;5032918;28;20437;-71
2021/01/07 10:30:45;;;;;;;12.10;9.50;;;3.80;99.90;;;;;;5033058;28;20183;-72
2021/01/07 10:33:10;;;;;;;14.57;10.77;;;3.80;99.90;;;;;;5035884;28;20429;-72
2021/01/07 10:35:39;;;;;;;14.53;10.40;;;3.80;99.90;;;;;;5034987;28;20438;-71
2021/01/07 10:38:07;;;;;;;15.10;10.17;;;3.80;99.90;;;;;;5033637;28;20166;-71
2021/01/07 10:40:36;;;;;;;16.57;11.23;;;3.80;99.90;;;;;;5035619;28;20836;-72
2021/01/07 10:43:01;;;;;;;15.47;11.27;;;3.80;99.90;;;;;;5035855;28;20934;-72
2021/01/07 10:45:27;;;;;;;15.37;10.53;;;3.70;99.90;;;;;;5034832;28;20469;-71
2021/01/07 10:47:58;;;;;;;15.37;10.43;;;3.80;99.90;;;;;;5032579;28;20195;-72
2021/01/07 10:50:28;;;;;;;14.93;10.40;;;3.70;99.90;;;;;;5036126;28;20433;-72
2021/01/07 10:53:08;;;;;;;14.60;11.13;;;3.80;99.90;;;;;;5033293;28;20468;-71
2021/01/07 10:55:41;;;;;;;15.93;10.10;;;3.70;99.90;;;;;;5046305;28;20457;-72
2021/01/07 10:58:33;;;;;;;15.57;11.10;;;3.80;99.90;;;;;;5039499;28;20481;-71
2021/01/07 11:01:29;;;;;;;15.83;11.60;;;3.80;99.90;;;;;;5045268;28;20435;-71
2021/01/07 11:04:22;;;;;;;16.10;11.07;;;3.80;99.90;;;;;;5047378;28;20840;-72
2021/01/07 11:06:56;;;;;;;16.50;11.43;;;3.80;99.90;;;;;;5014288;28;20426;-72
2021/01/07 11:09:27;;;;;;;16.70;11.67;;;3.90;99.90;;;;;;5013942;28;20423;-73
2021/01/07 11:12:02;;;;;;;13.93;10.37;;;3.80;99.90;;;;;;5026752;28;20414;-71
2021/01/07 11:14:49;;;;;;;13.93;11.03;;;3.80;99.90;;;;;;5032352;28;20417;-71
2021/01/07 11:17:21;;;;;;;13.97;10.27;;;3.80;99.90;;;;;;5032339;28;20798;-71
2021/01/07 11:19:50;;;;;;;14.20;9.73;;;3.70;99.90;;;;;;5033479;28;20413;-72
2021/01/07 11:22:27;;;;;;;17.23;10.87;;;3.70;99.90;;;;;;5033637;28;20983;-72
2021/01/07 11:24:54;;;;;;;17.30;11.43;;;3.80;99.90;;;;;;5034931;28;20422;-72
2021/01/07 11:27:24;;;;;;;14.80;10.63;;;3.80;99.90;;;;;;5032512;28;20927;-72
2021/01/07 11:29:51;;;;;;;16.47;11.70;;;3.80;99.90;;;;;;5036642;28;20427;-72
2021/01/07 11:32:17;;;;;;;16.40;12.20;;;3.70;99.90;;;;;;5034199;28;20415;-72
2021/01/07 11:34:44;;;;;;;13.33;10.13;;;3.70;99.90;;;;;;5041712;28;20851;-72
2021/01/07 11:37:39;;;;;;;15.17;9.90;;;3.80;99.90;;;;;;5036370;28;21006;-72
2021/01/07 11:40:19;;;;;;;13.60;9.00;;;3.70;99.90;;;;;;5037516;28;20406;-72
2021/01/07 11:43:22;;;;;;;15.00;10.00;;;3.70;99.90;;;;;;5037679;28;20542;-73
2021/01/07 11:45:55;;;;;;;14.17;9.87;;;3.80;99.90;;;;;;5049999;28;20458;-72
2021/01/07 11:48:23;;;;;;;13.60;10.50;;;3.80;99.90;;;;;;5041128;28;20406;-73
2021/01/07 11:50:57;;;;;;;14.87;9.90;;;3.70;99.90;;;;;;5040146;28;20407;-72
2021/01/07 11:53:24;;;;;;;14.33;10.63;;;3.70;99.90;;;;;;5038978;28;20450;-72
2021/01/07 11:55:50;;;;;;;13.27;9.97;;;3.70;99.90;;;;;;5044422;28;20451;-72
2021/01/07 11:58:22;;;;;;;18.23;11.60;;;3.60;99.90;;;;;;5056752;28;20417;-72
2021/01/07 12:00:52;;;;;;;15.83;11.60;;;3.60;99.90;;;;;;5056088;28;20592;-72
2021/01/07 12:03:18;;;;;;;16.33;10.60;;;3.60;99.90;;;;;;5040386;28;20503;-72
2021/01/07 12:05:44;;;;;;;17.00;11.43;;;3.70;99.90;;;;;;5036957;28;20488;-72
2021/01/07 12:08:52;;;;;;;16.57;11.13;;;3.70;99.90;;;;;;5036055;28;20431;-74
2021/01/07 12:11:44;;;;;;;15.70;11.00;;;3.70;99.90;;;;;;5019328;28;20206;-73
2021/01/07 12:14:11;;;;;;;14.40;10.10;;;3.80;99.90;;;;;;5039645;28;20794;-73
2021/01/07 12:16:53;;;;;;;14.23;10.00;;;3.70;99.90;;;;;;5041616;28;20473;-72
2021/01/07 12:19:24;;;;;;;17.83;10.17;;;3.80;99.90;;;;;;5039775;28;20523;-71
2021/01/07 12:21:51;;;;;;;13.27;8.97;;;3.70;99.90;;;;;;5039035;28;20465;-71
2021/01/07 12:24:18;;;;;;;17.00;10.50;;;3.70;99.90;;;;;;5070893;28;20426;-71
2021/01/07 12:26:48;;;;;;;13.43;10.17;;;3.70;99.90;;;;;;5026325;28;20463;-71
2021/01/07 12:29:21;;;;;;;15.03;10.20;;;3.80;99.90;;;;;;5048286;28;20421;-71
2021/01/07 12:31:52;;;;;;;15.37;10.40;;;3.80;99.90;;;;;;5053567;28;20408;-72
2021/01/07 12:34:32;;;;;;;14.00;9.63;;;3.90;99.90;;;;;;5049998;28;20434;-71
2021/01/07 12:37:13;;;;;;;14.90;10.10;;;3.80;99.90;;;;;;5046096;28;20488;-72
2021/01/07 12:39:50;;;;;;;15.30;10.70;;;3.80;99.90;;;;;;5053650;28;20401;-72
2021/01/07 12:42:22;;;;;;;17.83;12.30;;;3.80;99.90;;;;;;5050450;28;20457;-72
2021/01/07 12:44:52;;;;;;;15.13;11.57;;;3.90;99.90;;;;;;5037984;28;20790;-73
2021/01/07 12:47:17;;;;;;;15.17;10.93;;;3.90;99.90;;;;;;5034647;28;20450;-73